Decoded Metar for KFLG (FLAGSTAFF in AZ, USA) (IATA:FLG) | Meteo·Mobile Aviation Weather
aviador You're here:

KFLG Decoded Metar

FLAGSTAFF in AZ, USA
Report Time2018-10-19 19:57:00
UTC Time2018-10-19 20:23:58
Flight Rules vfr VFR
Wind070° at 17 Gusting to 25 kt
W.Decomp.*RWY 03: 15.3 kt HW 7.5 kt RCW
W.Rank070° ranks 8
Current wind is above 070° avg. (8.1)
Visibility9999 m
Phenomena:N/A
Clouds:N/A
Expected CloudBase > 4,400 ft AGL from Temp-Dew spread
CeilingNone
Temp11°C (ISA +10)
Dew Point00°C (47% RH)
AAT2.9°C
QNH1027 hPa
Density Alt7,782 ft
Elevation7,001 ft
Report Wrong Elevation
Raw Report
KFLG 191957Z 07017G25KT 10SM CLR 11/00 A3032 RMK AO2 PK WND
06029/1924 SLP221 T01060000=

Extra information for KFLG:More info

Metar Taf Metar & Taf Last 4 Metars F.Rules Stats Wind Profile Meteogram Temp Stats Airport Information Weather charts Add Link Nearby VenuesMetar ALERT Operation Metar Decoded Social comments

AIRNAV info for KFLG